Time;durP1;ratioP1;P1;durP2;ratioP2;P2;SDS_P1;SDS_P2;PMS_P1;PMS_P2;Temp;Humidity;BMP_temperature;BMP_pressure;BME280_temperature;BME280_humidity;BME280_pressure;Samples;Min_cycle;Max_cycle;Signal;HPM_P1;HPM_P2
2024/01/12 00:01:03;;;;;;;0.10;0.10;;;;;;;-3.97;100.00;100877.16;4241147;28;22094;-62
2024/01/12 00:03:29;;;;;;;0.10;0.10;;;;;;;-4.12;100.00;100874.94;4239428;28;20243;-62
2024/01/12 00:05:56;;;;;;;0.77;0.40;;;;;;;-4.08;100.00;100876.59;4226567;28;20342;-62
2024/01/12 00:08:23;;;;;;;0.10;0.10;;;;;;;-4.17;100.00;100875.94;4249876;28;20902;-66
2024/01/12 00:10:49;;;;;;;0.10;0.10;;;;;;;-4.11;100.00;100880.19;4246045;28;20326;-62
2024/01/12 00:13:17;;;;;;;0.10;0.10;;;;;;;-4.08;100.00;100884.50;4243716;28;20235;-61
2024/01/12 00:15:44;;;;;;;0.10;0.10;;;;;;;-4.00;100.00;100883.38;4230626;28;21142;-62
2024/01/12 00:18:10;;;;;;;0.00;0.00;;;;;;;-4.11;100.00;100888.13;4241974;28;20308;-62
2024/01/12 00:20:42;;;;;;;3.20;2.30;;;;;;;-4.16;100.00;100885.59;4231501;28;22334;-63
2024/01/12 00:23:10;;;;;;;0.10;0.10;;;;;;;-4.01;100.00;100886.06;4237738;28;20232;-64
2024/01/12 00:25:36;;;;;;;0.00;0.00;;;;;;;-4.10;100.00;100884.56;4240715;28;23641;-63
2024/01/12 00:28:03;;;;;;;0.07;0.07;;;;;;;-4.02;100.00;100884.34;4246958;28;20241;-61
2024/01/12 00:30:30;;;;;;;0.10;0.10;;;;;;;-4.04;100.00;100883.53;4243048;28;20697;-65
2024/01/12 00:32:56;;;;;;;0.10;0.10;;;;;;;-4.10;100.00;100881.03;4240842;28;20290;-60
2024/01/12 00:35:23;;;;;;;0.10;0.10;;;;;;;-4.02;100.00;100886.97;4242749;28;20403;-63
2024/01/12 00:41:37;;;;;;;0.00;0.00;;;;;;;-4.17;100.00;100873.28;4253452;28;20260;-65
2024/01/12 00:44:07;;;;;;;0.10;0.10;;;;;;;-4.22;100.00;100877.84;4237735;28;25482;-61
2024/01/12 00:46:33;;;;;;;0.00;0.00;;;;;;;-4.11;100.00;100879.28;4241145;28;20226;-62
2024/01/12 00:49:00;;;;;;;0.10;0.10;;;;;;;-4.27;100.00;100881.50;4242221;28;20264;-60
2024/01/12 00:51:27;;;;;;;0.10;0.10;;;;;;;-4.23;100.00;100884.03;4252216;28;21807;-60
2024/01/12 00:53:54;;;;;;;0.10;0.10;;;;;;;-4.37;100.00;100891.47;4242124;28;21313;-62
2024/01/12 00:56:21;;;;;;;0.10;0.10;;;;;;;-4.51;100.00;100890.06;4245980;28;21319;-62
2024/01/12 00:58:47;;;;;;;0.10;0.10;;;;;;;-4.52;100.00;100901.53;4238000;28;20241;-60
2024/01/12 01:01:14;;;;;;;0.00;0.00;;;;;;;-4.56;100.00;100902.50;4240887;28;23522;-63
2024/01/12 01:03:42;;;;;;;0.10;0.10;;;;;;;-4.59;100.00;100910.53;4232331;28;21221;-61
2024/01/12 01:06:09;;;;;;;0.00;0.00;;;;;;;-4.64;100.00;100904.47;4240412;28;20243;-63
2024/01/12 01:08:35;;;;;;;0.10;0.10;;;;;;;-4.62;100.00;100908.84;4244326;28;20273;-60
2024/01/12 01:11:02;;;;;;;0.10;0.10;;;;;;;-4.68;100.00;100922.16;4222230;28;20412;-62
2024/01/12 01:13:29;;;;;;;0.10;0.10;;;;;;;-4.80;100.00;100917.22;4236703;28;20574;-61
2024/01/12 01:15:55;;;;;;;0.10;0.10;;;;;;;-4.84;100.00;100924.34;4237240;28;20236;-61
2024/01/12 01:18:22;;;;;;;0.10;0.10;;;;;;;-4.80;100.00;100923.38;4244130;28;22833;-62
2024/01/12 01:20:49;;;;;;;0.10;0.10;;;;;;;-4.83;100.00;100927.81;4238112;28;20309;-62
2024/01/12 01:23:17;;;;;;;0.10;0.10;;;;;;;-4.87;100.00;100931.47;4237984;28;20810;-61
2024/01/12 01:25:43;;;;;;;0.10;0.10;;;;;;;-4.89;100.00;100930.63;4245557;28;21985;-61
2024/01/12 01:28:10;;;;;;;0.10;0.10;;;;;;;-5.06;100.00;100923.97;4240926;28;20230;-60
2024/01/12 01:30:36;;;;;;;0.10;0.10;;;;;;;-4.99;100.00;100933.50;4237330;28;20238;-62
2024/01/12 01:33:03;;;;;;;0.10;0.10;;;;;;;-5.04;100.00;100953.84;4242204;28;20238;-61
2024/01/12 01:35:30;;;;;;;0.10;0.10;;;;;;;-5.04;100.00;100958.28;4245381;28;20234;-61
2024/01/12 01:38:00;;;;;;;0.10;0.10;;;;;;;-5.12;100.00;100961.97;4256675;28;20260;-64
2024/01/12 01:40:27;;;;;;;0.10;0.10;;;;;;;-5.12;100.00;100969.88;4215218;28;20429;-63
2024/01/12 01:42:53;;;;;;;0.10;0.10;;;;;;;-5.21;100.00;100974.50;4245240;28;20243;-63
2024/01/12 01:45:20;;;;;;;0.10;0.10;;;;;;;-5.19;100.00;100975.31;4227588;28;22187;-60
2024/01/12 01:47:47;;;;;;;0.07;0.07;;;;;;;-5.18;100.00;100980.56;4243724;28;20359;-60
2024/01/12 01:50:16;;;;;;;0.10;0.10;;;;;;;-5.31;100.00;100993.16;4247333;28;20695;-64
2024/01/12 01:52:44;;;;;;;0.10;0.10;;;;;;;-5.36;100.00;100995.00;4224001;28;20248;-60
2024/01/12 01:55:14;;;;;;;0.10;0.10;;;;;;;-5.37;100.00;101000.31;4242956;28;20233;-63
2024/01/12 01:57:42;;;;;;;0.10;0.10;;;;;;;-5.41;100.00;100999.53;4242671;28;21536;-62
2024/01/12 02:00:11;;;;;;;0.10;0.10;;;;;;;-5.37;100.00;100987.13;4235337;28;20421;-62
2024/01/12 02:02:38;;;;;;;0.10;0.10;;;;;;;-5.45;100.00;100968.84;4244110;28;25340;-64
2024/01/12 02:05:07;;;;;;;0.30;0.30;;;;;;;-5.61;100.00;100978.81;4245097;28;22521;-61
2024/01/12 02:07:37;;;;;;;0.10;0.10;;;;;;;-5.60;100.00;100981.44;4241346;28;20420;-62
2024/01/12 02:10:04;;;;;;;0.10;0.10;;;;;;;-5.57;100.00;100991.06;4226018;28;20372;-61
2024/01/12 02:12:30;;;;;;;10.70;0.23;;;;;;;-5.59;100.00;100983.16;4238304;28;20291;-61
2024/01/12 02:14:57;;;;;;;0.00;0.00;;;;;;;-5.67;100.00;100986.84;4240454;28;20280;-61
2024/01/12 02:17:24;;;;;;;0.10;0.10;;;;;;;-5.73;100.00;100978.19;4225441;28;21266;-60
2024/01/12 02:19:58;;;;;;;0.10;0.10;;;;;;;-5.78;99.72;100981.78;4230194;28;20245;-63
2024/01/12 02:22:25;;;;;;;0.10;0.10;;;;;;;-5.83;99.68;100989.78;4244562;28;20764;-61
2024/01/12 02:24:53;;;;;;;0.10;0.10;;;;;;;-5.85;99.34;100988.09;4239492;28;20234;-61
2024/01/12 02:27:20;;;;;;;0.10;0.10;;;;;;;-5.81;99.08;100990.63;4231015;28;23053;-62
2024/01/12 02:29:50;;;;;;;0.10;0.10;;;;;;;-5.84;98.25;100997.75;4240646;28;20488;-61
2024/01/12 02:32:17;;;;;;;0.00;0.00;;;;;;;-5.87;97.49;101001.31;4238614;28;20406;-61
2024/01/12 02:34:44;;;;;;;0.10;0.10;;;;;;;-5.96;96.68;101014.66;4243616;28;20602;-63
2024/01/12 02:37:10;;;;;;;0.00;0.00;;;;;;;-5.91;96.62;101008.41;4231304;28;20838;-60
2024/01/12 02:39:37;;;;;;;0.00;0.00;;;;;;;-5.94;95.47;101011.09;4234207;28;20233;-62
2024/01/12 02:42:03;;;;;;;0.10;0.10;;;;;;;-5.97;95.39;101013.78;4240904;28;20687;-60
2024/01/12 02:44:30;;;;;;;0.10;0.10;;;;;;;-6.03;95.84;101013.91;4239987;28;21883;-60
2024/01/12 02:46:57;;;;;;;0.00;0.00;;;;;;;-6.03;95.38;101015.69;4233974;28;22032;-61
2024/01/12 02:49:23;;;;;;;0.10;0.10;;;;;;;-6.13;95.18;101010.56;4238447;28;23465;-61
2024/01/12 02:51:50;;;;;;;0.00;0.00;;;;;;;-6.22;95.36;101016.00;4257073;28;22296;-60
2024/01/12 02:54:16;;;;;;;0.10;0.10;;;;;;;-6.33;95.71;101004.78;4238364;28;20234;-64
2024/01/12 02:56:43;;;;;;;0.00;0.00;;;;;;;-6.32;95.78;101006.53;4234362;28;21965;-61
2024/01/12 02:59:09;;;;;;;0.07;0.07;;;;;;;-6.32;96.15;101003.91;4251797;28;20234;-60
2024/01/12 03:01:36;;;;;;;0.10;0.10;;;;;;;-6.41;95.55;101003.16;4238752;28;20228;-62
2024/01/12 03:04:03;;;;;;;0.10;0.10;;;;;;;-6.47;96.08;101013.78;4244359;28;20238;-62
2024/01/12 03:06:29;;;;;;;0.10;0.10;;;;;;;-6.42;95.94;101011.94;4232241;28;23650;-62
2024/01/12 03:08:56;;;;;;;0.10;0.10;;;;;;;-6.44;95.84;101004.97;4238085;28;20551;-61
2024/01/12 03:11:23;;;;;;;0.10;0.10;;;;;;;-6.49;95.39;101019.97;4259092;28;20244;-64
2024/01/12 03:13:49;;;;;;;0.10;0.10;;;;;;;-6.61;95.33;101015.78;4245860;28;20219;-63
2024/01/12 03:16:22;;;;;;;0.10;0.10;;;;;;;-6.67;96.07;101008.84;4234819;28;20609;-61
2024/01/12 03:18:49;;;;;;;0.10;0.10;;;;;;;-6.64;95.90;101013.19;4246093;28;20319;-63
2024/01/12 03:21:17;;;;;;;0.10;0.10;;;;;;;-6.71;96.03;101015.03;4245455;28;23021;-63
2024/01/12 03:23:44;;;;;;;0.00;0.00;;;;;;;-6.76;96.14;101016.88;4242475;28;20301;-60
2024/01/12 03:26:11;;;;;;;0.00;0.00;;;;;;;-6.79;96.22;101009.91;4232440;28;20222;-60
2024/01/12 03:28:37;;;;;;;0.00;0.00;;;;;;;-6.83;96.30;101017.84;4248939;28;20242;-63
2024/01/12 03:31:04;;;;;;;0.10;0.10;;;;;;;-6.88;96.24;101010.91;4227159;28;25555;-63
2024/01/12 03:33:31;;;;;;;0.10;0.10;;;;;;;-6.88;96.58;101015.28;4241459;28;20237;-63
2024/01/12 03:35:58;;;;;;;0.10;0.10;;;;;;;-6.95;96.31;101009.25;4236839;28;20296;-62
2024/01/12 03:38:25;;;;;;;0.10;0.10;;;;;;;-7.04;96.29;101007.59;4237522;28;21116;-62
2024/01/12 03:40:51;;;;;;;0.10;0.10;;;;;;;-7.11;96.57;101011.22;4240167;28;20229;-59
2024/01/12 03:43:18;;;;;;;0.10;0.10;;;;;;;-7.11;96.77;101010.34;4238663;28;20233;-62
2024/01/12 03:45:44;;;;;;;0.67;0.67;;;;;;;-7.14;96.86;101013.03;4245474;28;22211;-61
2024/01/12 03:48:11;;;;;;;0.10;0.10;;;;;;;-7.19;96.90;101013.06;4242972;28;21831;-61
2024/01/12 03:50:39;;;;;;;0.10;0.10;;;;;;;-7.30;96.89;101017.63;4252919;28;20441;-61
2024/01/12 03:53:05;;;;;;;7.67;7.00;;;;;;;-7.39;97.11;101018.59;4238026;28;20250;-59
2024/01/12 03:55:33;;;;;;;0.20;0.20;;;;;;;-7.37;97.21;101019.44;4236304;28;20346;-62
2024/01/12 03:58:00;;;;;;;0.10;0.10;;;;;;;-7.51;97.06;101023.13;4246572;28;20394;-62
2024/01/12 04:00:26;;;;;;;0.00;0.00;;;;;;;-7.51;97.38;101031.00;4244494;28;20487;-62
2024/01/12 04:02:53;;;;;;;0.10;0.10;;;;;;;-7.49;97.67;101042.38;4236188;28;20298;-61
2024/01/12 04:05:19;;;;;;;0.87;0.87;;;;;;;-7.41;97.02;101039.66;4247408;28;20333;-62
2024/01/12 04:07:46;;;;;;;0.10;0.10;;;;;;;-7.45;96.87;101034.44;4236105;28;20288;-61
2024/01/12 04:10:12;;;;;;;12.93;6.57;;;;;;;-7.55;96.65;101038.94;4247812;28;21206;-62
2024/01/12 04:12:39;;;;;;;0.10;0.10;;;;;;;-7.66;96.97;101039.06;4242871;28;20235;-62
2024/01/12 04:15:08;;;;;;;0.10;0.10;;;;;;;-7.70;97.34;101042.59;4226298;28;20867;-65
2024/01/12 04:17:36;;;;;;;0.10;0.10;;;;;;;-7.81;97.79;101037.47;4241163;28;20242;-66
2024/01/12 04:20:03;;;;;;;0.10;0.10;;;;;;;-7.78;98.15;101042.69;4246069;28;20244;-62
2024/01/12 04:22:31;;;;;;;0.10;0.10;;;;;;;-7.74;97.71;101046.16;4232520;28;22161;-61
2024/01/12 04:24:58;;;;;;;0.10;0.10;;;;;;;-7.80;97.83;101032.22;4241826;28;20275;-61
2024/01/12 04:27:26;;;;;;;0.10;0.10;;;;;;;-7.87;97.49;101034.91;4259747;28;20259;-63
2024/01/12 04:29:53;;;;;;;0.10;0.10;;;;;;;-7.89;97.54;101036.69;4243432;28;20288;-61
2024/01/12 04:32:19;;;;;;;0.00;0.00;;;;;;;-7.94;97.68;101031.47;4236020;28;20306;-62
2024/01/12 04:34:46;;;;;;;0.07;0.07;;;;;;;-7.94;97.80;101036.75;4237129;28;23032;-63
2024/01/12 04:37:13;;;;;;;0.10;0.10;;;;;;;-7.93;97.75;101049.00;4233417;28;20236;-64
2024/01/12 04:39:42;;;;;;;0.10;0.10;;;;;;;-8.04;97.87;101043.81;4249597;28;20284;-62
2024/01/12 04:42:08;;;;;;;0.10;0.10;;;;;;;-8.02;98.17;101041.19;4240175;28;20231;-62
2024/01/12 04:44:35;;;;;;;0.10;0.10;;;;;;;-8.03;97.78;101050.81;4250813;28;20237;-63
2024/01/12 04:47:01;;;;;;;0.10;0.10;;;;;;;-7.87;97.71;101041.03;4242983;28;20235;-63
2024/01/12 04:49:28;;;;;;;0.10;0.10;;;;;;;-8.00;97.46;101057.78;4244093;28;20414;-63
2024/01/12 04:51:55;;;;;;;0.10;0.10;;;;;;;-7.92;97.58;101060.38;4244156;28;21247;-62
2024/01/12 04:54:21;;;;;;;0.10;0.10;;;;;;;-7.95;97.49;101048.13;4243663;28;22191;-62
2024/01/12 04:56:48;;;;;;;0.00;0.00;;;;;;;-7.99;97.56;101046.41;4242487;28;20226;-60
2024/01/12 04:59:15;;;;;;;0.10;0.10;;;;;;;-7.94;97.61;101055.13;4239159;28;20484;-63
2024/01/12 05:01:41;;;;;;;0.00;0.00;;;;;;;-7.96;97.87;101059.53;4226361;28;20254;-63
2024/01/12 05:04:08;;;;;;;0.10;0.10;;;;;;;-7.92;97.73;101057.75;4241461;28;20799;-64
2024/01/12 05:06:34;;;;;;;0.10;0.10;;;;;;;-7.96;97.72;101044.63;4242839;28;20287;-61
2024/01/12 05:09:01;;;;;;;0.10;0.10;;;;;;;-7.81;97.51;101045.34;4240285;28;20235;-60
2024/01/12 05:11:28;;;;;;;0.10;0.10;;;;;;;-7.73;97.21;101047.91;4231027;28;20231;-60
2024/01/12 05:13:54;;;;;;;0.10;0.10;;;;;;;-7.73;96.85;101050.53;4239740;28;20233;-63
2024/01/12 05:16:21;;;;;;;0.10;0.10;;;;;;;-7.74;96.80;101046.16;4232861;28;20813;-62
2024/01/12 05:18:48;;;;;;;0.10;0.10;;;;;;;-7.70;96.83;101048.75;4235736;28;20221;-62
2024/01/12 05:21:14;;;;;;;0.00;0.00;;;;;;;-7.65;96.58;101049.56;4235646;28;20227;-63
2024/01/12 05:23:44;;;;;;;0.33;0.33;;;;;;;-7.74;95.33;101054.91;4241584;28;20605;-62
2024/01/12 05:26:12;;;;;;;0.10;0.10;;;;;;;-7.69;95.59;101054.88;4238679;28;20999;-63
2024/01/12 05:28:39;;;;;;;0.00;0.00;;;;;;;-7.64;95.72;101055.72;4253288;28;20227;-63
2024/01/12 05:31:08;;;;;;;0.10;0.10;;;;;;;-7.60;95.89;101057.41;4231664;28;20323;-62
2024/01/12 05:33:35;;;;;;;0.10;0.10;;;;;;;-7.59;95.62;101053.88;4242430;28;20234;-62
2024/01/12 05:36:02;;;;;;;0.10;0.10;;;;;;;-7.49;95.69;101060.78;4243469;28;20233;-63
2024/01/12 05:38:29;;;;;;;0.10;0.10;;;;;;;-7.48;95.44;101059.03;4236857;28;20316;-61
2024/01/12 05:40:56;;;;;;;0.10;0.10;;;;;;;-7.49;95.01;101054.66;4232734;28;21585;-60
2024/01/12 05:43:22;;;;;;;0.10;0.10;;;;;;;-7.53;95.37;101061.69;4241142;28;20640;-62
2024/01/12 05:45:49;;;;;;;0.00;0.00;;;;;;;-7.45;95.15;101063.38;4237569;28;20362;-60
2024/01/12 05:48:15;;;;;;;0.10;0.10;;;;;;;-7.43;95.37;101057.19;4235088;28;20307;-63
2024/01/12 05:50:42;;;;;;;0.10;0.10;;;;;;;-7.43;95.49;101053.72;4242875;28;23318;-64
2024/01/12 05:53:09;;;;;;;0.10;0.10;;;;;;;-7.45;95.13;101048.47;4240825;28;21182;-63
2024/01/12 05:55:35;;;;;;;0.17;0.17;;;;;;;-7.56;95.16;101045.09;4239782;28;20306;-63
2024/01/12 05:58:03;;;;;;;0.00;0.00;;;;;;;-7.61;95.70;101036.41;4236186;28;20266;-62
2024/01/12 06:00:30;;;;;;;0.10;0.10;;;;;;;-7.46;95.89;101049.38;4238468;28;22794;-63
2024/01/12 06:02:57;;;;;;;0.10;0.10;;;;;;;-7.43;95.58;101048.47;4238061;28;20348;-63
2024/01/12 06:05:24;;;;;;;0.10;0.10;;;;;;;-7.61;95.38;101049.53;4241379;28;23033;-64
2024/01/12 06:07:51;;;;;;;0.20;0.20;;;;;;;-7.66;95.27;101046.97;4235110;28;22245;-63
2024/01/12 06:10:17;;;;;;;0.10;0.10;;;;;;;-7.71;95.97;101048.78;4243148;28;20350;-61
2024/01/12 06:12:44;;;;;;;0.10;0.10;;;;;;;-7.70;96.49;101043.50;4239263;28;20347;-67
2024/01/12 06:15:11;;;;;;;0.00;0.00;;;;;;;-7.63;96.05;101041.69;4235860;28;21610;-64
2024/01/12 06:17:37;;;;;;;0.10;0.10;;;;;;;-7.65;96.32;101043.44;4233303;28;21242;-63
2024/01/12 06:20:05;;;;;;;0.10;0.10;;;;;;;-7.84;96.92;101041.00;4242925;28;25775;-62
2024/01/12 06:22:31;;;;;;;0.10;0.10;;;;;;;-7.78;97.07;101036.59;4237948;28;20618;-66
2024/01/12 06:24:59;;;;;;;0.10;0.10;;;;;;;-7.78;97.22;101034.81;4238504;28;21699;-63
2024/01/12 06:27:25;;;;;;;0.10;0.10;;;;;;;-7.73;97.34;101029.50;4232112;28;22131;-65
2024/01/12 06:29:52;;;;;;;11.53;2.00;;;;;;;-7.98;97.58;101038.53;4233405;28;20481;-64
2024/01/12 06:32:18;;;;;;;0.10;0.10;;;;;;;-7.98;98.00;101042.88;4243376;28;21959;-63
2024/01/12 06:34:45;;;;;;;0.30;0.30;;;;;;;-8.04;98.17;101040.31;4236460;28;20242;-65
2024/01/12 06:37:12;;;;;;;7.87;7.20;;;;;;;-7.96;98.49;101038.50;4237248;28;20233;-63
2024/01/12 06:39:42;;;;;;;0.57;0.57;;;;;;;-8.07;98.42;101045.59;4239486;28;20238;-65
2024/01/12 06:42:09;;;;;;;1.90;1.80;;;;;;;-8.22;98.73;101031.72;4238898;28;20276;-65
2024/01/12 06:44:40;;;;;;;1.60;1.50;;;;;;;-8.24;99.10;101041.38;4238755;28;20376;-65
2024/01/12 06:47:10;;;;;;;1.90;1.43;;;;;;;-8.28;99.51;101035.28;4238279;28;20289;-66
2024/01/12 06:49:41;;;;;;;7.87;7.33;;;;;;;-8.16;99.69;101038.69;4234551;28;20332;-63
2024/01/12 06:52:08;;;;;;;0.10;0.10;;;;;;;-7.98;99.66;101029.75;4243047;28;20315;-61
2024/01/12 06:54:35;;;;;;;0.53;0.53;;;;;;;-7.92;99.51;101037.56;4241238;28;20234;-64
2024/01/12 06:57:01;;;;;;;0.20;0.20;;;;;;;-7.87;99.42;101040.16;4253759;28;20226;-65
2024/01/12 06:59:28;;;;;;;0.40;0.40;;;;;;;-7.91;99.13;101047.19;4243171;28;21603;-65
2024/01/12 07:01:55;;;;;;;0.10;0.10;;;;;;;-7.78;98.99;101053.22;4242518;28;20229;-64
2024/01/12 07:04:21;;;;;;;0.23;0.23;;;;;;;-7.71;98.93;101054.88;4234380;28;20242;-64
2024/01/12 07:06:48;;;;;;;0.97;0.93;;;;;;;-7.70;98.10;101053.13;4241052;28;20336;-63
2024/01/12 07:09:16;;;;;;;2.50;1.33;;;;;;;-8.01;98.74;101064.81;4231924;28;20332;-65
2024/01/12 07:11:43;;;;;;;0.63;0.63;;;;;;;-8.19;99.19;101064.97;4229253;28;20732;-66
2024/01/12 07:14:10;;;;;;;0.20;0.20;;;;;;;-8.21;99.57;101072.00;4248318;28;20252;-65
2024/01/12 07:16:37;;;;;;;0.40;0.40;;;;;;;-8.16;99.78;101070.19;4240165;28;21512;-64
2024/01/12 07:19:04;;;;;;;0.37;0.33;;;;;;;-8.17;99.98;101076.34;4244783;28;20245;-65
2024/01/12 07:21:31;;;;;;;1.30;0.93;;;;;;;-8.22;100.00;101065.88;4244244;28;21498;-65
2024/01/12 07:23:59;;;;;;;8.23;1.90;;;;;;;-8.20;100.00;101066.72;4234772;28;20273;-63
2024/01/12 07:26:25;;;;;;;3.73;2.30;;;;;;;-8.24;100.00;101072.00;4241015;28;20270;-65
2024/01/12 07:28:52;;;;;;;1.17;0.87;;;;;;;-8.18;100.00;101067.59;4243189;28;20249;-67
2024/01/12 07:31:19;;;;;;;1.87;1.27;;;;;;;-8.17;100.00;101057.94;4242483;28;20225;-64
2024/01/12 07:33:45;;;;;;;3.17;2.87;;;;;;;-8.16;100.00;101059.69;4234296;28;20234;-65
2024/01/12 07:36:12;;;;;;;1.70;0.80;;;;;;;-8.13;100.00;101064.94;4247592;28;20233;-63
2024/01/12 07:38:39;;;;;;;4.73;2.33;;;;;;;-8.16;100.00;101055.34;4243934;28;21777;-62
2024/01/12 07:41:06;;;;;;;6.73;3.37;;;;;;;-8.17;100.00;101055.31;4235822;28;20471;-65
2024/01/12 07:43:33;;;;;;;3.50;1.23;;;;;;;-8.03;100.00;101066.56;4234048;28;21416;-62
2024/01/12 07:46:00;;;;;;;1.00;1.00;;;;;;;-7.98;100.00;101048.16;4241654;28;20235;-63
2024/01/12 07:48:27;;;;;;;0.10;0.10;;;;;;;-7.81;100.00;101056.75;4217150;28;20233;-64
2024/01/12 07:50:54;;;;;;;4.33;2.67;;;;;;;-7.91;99.75;101049.81;4242899;28;20226;-65
2024/01/12 07:53:20;;;;;;;0.10;0.10;;;;;;;-7.93;100.00;101045.47;4238670;28;20265;-64
2024/01/12 07:55:49;;;;;;;3.80;1.40;;;;;;;-7.97;100.00;101050.75;4235147;28;21172;-65
2024/01/12 07:58:18;;;;;;;8.67;2.73;;;;;;;-8.01;100.00;101046.44;4229991;28;20922;-65
2024/01/12 08:00:45;;;;;;;5.17;2.70;;;;;;;-7.94;100.00;101047.25;4245680;28;20299;-64
2024/01/12 08:03:12;;;;;;;9.57;3.50;;;;;;;-7.85;100.00;101033.13;4240390;28;20413;-64
2024/01/12 08:05:39;;;;;;;1.70;1.50;;;;;;;-7.83;100.00;101032.22;4235049;28;20226;-66
2024/01/12 08:08:06;;;;;;;14.83;3.60;;;;;;;-7.76;100.00;101026.91;4240991;28;21399;-66
2024/01/12 08:10:33;;;;;;;4.23;1.80;;;;;;;-7.74;100.00;101023.38;4241311;28;20239;-66
2024/01/12 08:13:00;;;;;;;18.70;5.43;;;;;;;-7.71;100.00;101019.84;4213210;28;20310;-65
2024/01/12 08:15:27;;;;;;;8.43;4.07;;;;;;;-7.63;100.00;101015.38;4250694;28;20245;-70
2024/01/12 08:17:53;;;;;;;14.90;5.13;;;;;;;-7.63;100.00;101020.66;4243683;28;20286;-69
2024/01/12 08:20:20;;;;;;;19.53;4.97;;;;;;;-7.58;100.00;101021.44;4240994;28;20372;-65
2024/01/12 08:22:47;;;;;;;1.83;1.17;;;;;;;-7.52;100.00;101018.75;4261996;28;20309;-68
2024/01/12 08:25:14;;;;;;;1.70;1.30;;;;;;;-7.39;100.00;101019.47;4251371;28;20242;-66
2024/01/12 08:27:40;;;;;;;0.50;0.50;;;;;;;-7.34;100.00;101022.91;4249730;28;20237;-66
2024/01/12 08:30:07;;;;;;;1.93;1.27;;;;;;;-7.24;100.00;101022.81;4236807;28;20238;-66
2024/01/12 08:32:34;;;;;;;4.03;2.33;;;;;;;-7.17;100.00;101014.78;4246218;28;20328;-67
2024/01/12 08:35:01;;;;;;;14.03;2.93;;;;;;;-7.02;100.00;101015.47;4229754;28;20612;-67
2024/01/12 08:37:28;;;;;;;1.57;0.83;;;;;;;-6.82;100.00;101016.97;4234345;28;20564;-66
2024/01/12 08:39:55;;;;;;;1.70;1.60;;;;;;;-6.70;100.00;101008.88;4245413;28;20230;-66
2024/01/12 08:42:21;;;;;;;16.50;3.20;;;;;;;-6.74;100.00;101012.47;4234184;28;20409;-65
2024/01/12 08:44:48;;;;;;;1.90;0.80;;;;;;;-6.64;100.00;101015.81;4229729;28;20896;-68
2024/01/12 08:47:15;;;;;;;15.00;4.93;;;;;;;-6.58;100.00;101019.25;4241591;28;22198;-64
2024/01/12 08:49:42;;;;;;;2.47;1.60;;;;;;;-6.67;100.00;101022.00;4234514;28;20238;-64
2024/01/12 08:52:09;;;;;;;7.47;0.63;;;;;;;-6.53;100.00;101009.50;4240553;28;20307;-65
2024/01/12 08:54:38;;;;;;;9.90;3.63;;;;;;;-6.59;100.00;101014.88;4244284;28;20230;-63
2024/01/12 08:57:04;;;;;;;16.13;5.57;;;;;;;-6.57;100.00;100997.25;4245046;28;20229;-62
2024/01/12 08:59:32;;;;;;;15.03;4.37;;;;;;;-6.48;100.00;101006.78;4243951;28;20238;-64
2024/01/12 09:01:59;;;;;;;11.97;4.47;;;;;;;-6.39;100.00;101011.91;4251725;28;20367;-64
2024/01/12 09:04:28;;;;;;;18.80;5.10;;;;;;;-6.43;100.00;101009.34;4260815;28;20246;-64
2024/01/12 09:06:55;;;;;;;17.27;6.93;;;;;;;-6.50;100.00;101008.56;4246896;28;20230;-66
2024/01/12 09:09:22;;;;;;;13.43;4.00;;;;;;;-6.44;100.00;101013.72;4245771;28;20226;-65
2024/01/12 09:11:48;;;;;;;3.73;2.50;;;;;;;-6.21;100.00;101017.75;4248202;28;23915;-67
2024/01/12 09:14:15;;;;;;;4.20;3.50;;;;;;;-6.01;98.74;101009.50;4253646;28;20727;-65
2024/01/12 09:16:42;;;;;;;4.33;2.93;;;;;;;-6.19;98.65;100992.25;4252154;28;20230;-68
2024/01/12 09:19:09;;;;;;;6.00;4.07;;;;;;;-6.19;99.16;101004.56;4247421;28;20230;-65
2024/01/12 09:21:38;;;;;;;10.13;3.07;;;;;;;-6.21;99.71;100994.91;4247810;28;20230;-65
2024/01/12 09:24:05;;;;;;;7.33;3.73;;;;;;;-6.09;99.43;100990.31;4241031;28;20329;-63
2024/01/12 09:26:31;;;;;;;14.53;6.60;;;;;;;-5.99;99.49;100980.47;4252820;28;21818;-65
2024/01/12 09:28:58;;;;;;;8.53;4.20;;;;;;;-5.86;99.17;100983.72;4252765;28;21093;-63
2024/01/12 09:31:25;;;;;;;6.43;4.00;;;;;;;-5.94;99.27;100975.97;4265521;28;20398;-63
2024/01/12 09:33:52;;;;;;;9.17;4.00;;;;;;;-5.83;98.32;100976.59;4250057;28;22949;-65
2024/01/12 09:36:19;;;;;;;20.53;6.00;;;;;;;-5.85;97.82;100967.84;4248693;28;21637;-65
2024/01/12 09:38:46;;;;;;;11.83;4.67;;;;;;;-5.89;97.78;100971.47;4241659;28;24766;-66
2024/01/12 09:41:13;;;;;;;7.57;2.93;;;;;;;-5.81;98.42;100968.66;4258239;28;20311;-64
2024/01/12 09:43:42;;;;;;;21.50;3.77;;;;;;;-5.88;98.34;100952.97;4234846;28;21416;-66
2024/01/12 09:46:09;;;;;;;0.30;0.30;;;;;;;-5.75;98.24;100963.28;4241098;28;20307;-64
2024/01/12 09:48:38;;;;;;;21.27;5.27;;;;;;;-5.77;98.48;100951.91;4243771;28;22192;-65
2024/01/12 09:51:06;;;;;;;10.17;2.67;;;;;;;-5.70;97.90;100947.38;4249011;28;20430;-64
2024/01/12 09:53:35;;;;;;;17.87;5.50;;;;;;;-5.67;96.99;100945.53;4245077;28;20238;-65
2024/01/12 09:56:03;;;;;;;21.53;5.57;;;;;;;-5.60;96.23;100946.28;4248258;28;20241;-66
2024/01/12 09:58:38;;;;;;;26.30;9.13;;;;;;;-5.57;96.13;100935.66;4226407;28;20264;-65
2024/01/12 10:01:05;;;;;;;18.40;7.60;;;;;;;-5.41;95.98;100939.72;4263884;28;21017;-67
2024/01/12 10:03:32;;;;;;;14.17;2.73;;;;;;;-5.42;95.40;100935.34;4247328;28;21779;-67
2024/01/12 10:05:59;;;;;;;16.40;3.37;;;;;;;-5.29;94.89;100935.06;4256561;28;22622;-65
2024/01/12 10:08:44;;;;;;;8.90;3.63;;;;;;;-5.26;94.20;100925.31;4249277;28;20436;-68
2024/01/12 10:11:11;;;;;;;25.40;7.97;;;;;;;-5.33;93.77;100938.69;4229684;28;20248;-67
2024/01/12 10:13:38;;;;;;;2.87;1.53;;;;;;;-5.26;94.34;100924.44;4266250;28;24040;-68
2024/01/12 10:16:07;;;;;;;9.70;3.90;;;;;;;-5.13;92.87;100928.53;4253802;28;21713;-69
2024/01/12 10:18:33;;;;;;;14.77;3.37;;;;;;;-5.18;92.82;100918.97;4244896;28;21458;-68
2024/01/12 10:21:03;;;;;;;13.33;5.47;;;;;;;-5.20;92.80;100911.09;4258117;28;21047;-65
2024/01/12 10:23:30;;;;;;;6.07;2.47;;;;;;;-5.08;92.58;100896.75;4252607;28;20271;-67
2024/01/12 10:26:00;;;;;;;17.77;5.97;;;;;;;-4.73;90.76;100894.16;4248329;28;22717;-69
2024/01/12 10:28:28;;;;;;;6.50;2.00;;;;;;;-4.14;88.99;100897.00;4246907;28;20235;-69
2024/01/12 10:30:56;;;;;;;13.87;5.00;;;;;;;-4.03;87.55;100898.47;4244426;28;20226;-67
2024/01/12 10:33:23;;;;;;;11.63;5.00;;;;;;;-4.14;87.65;100897.00;4257056;28;21076;-68
2024/01/12 10:36:06;;;;;;;7.07;1.90;;;;;;;-4.20;87.92;100894.53;4244520;28;21027;-68
2024/01/12 10:38:38;;;;;;;10.67;3.53;;;;;;;-3.89;86.39;100893.66;4258311;28;20230;-67
2024/01/12 10:41:07;;;;;;;5.27;2.30;;;;;;;-3.47;85.39;100883.63;4245214;28;20860;-68
2024/01/12 10:43:37;;;;;;;6.30;3.10;;;;;;;-3.06;82.74;100876.19;4242527;28;20896;-67
2024/01/12 10:46:14;;;;;;;8.33;3.47;;;;;;;-3.06;82.39;100879.69;4254281;28;20719;-66
2024/01/12 10:48:48;;;;;;;10.93;4.07;;;;;;;-2.74;80.68;100888.38;4273056;28;20249;-67
2024/01/12 10:51:19;;;;;;;2.20;1.07;;;;;;;-2.29;79.71;100878.88;4276280;28;22033;-68
2024/01/12 10:53:59;;;;;;;1.43;1.03;;;;;;;-2.36;80.16;100882.66;4247257;28;20324;-65
2024/01/12 10:56:27;;;;;;;14.07;4.23;;;;;;;-2.14;79.40;100874.84;4245195;28;20231;-65
2024/01/12 10:58:54;;;;;;;11.90;3.50;;;;;;;-1.91;78.53;100868.66;4242348;28;20776;-67
2024/01/12 11:01:21;;;;;;;15.83;4.30;;;;;;;-2.32;79.38;100870.16;4251737;28;20254;-71
2024/01/12 11:03:49;;;;;;;12.67;4.30;;;;;;;-2.14;78.30;100863.34;4247501;28;20444;-68
2024/01/12 11:06:18;;;;;;;26.70;5.57;;;;;;;-2.44;79.25;100867.03;4252800;28;25585;-65
2024/01/12 11:08:48;;;;;;;2.47;1.60;;;;;;;-1.96;79.14;100851.19;4237457;28;20239;-66
2024/01/12 11:11:20;;;;;;;12.73;4.60;;;;;;;-1.53;78.48;100851.34;4253126;28;20294;-45
2024/01/12 11:13:48;;;;;;;17.63;6.07;;;;;;;-1.47;76.06;100838.69;4245808;28;20273;-65
2024/01/12 11:16:15;;;;;;;9.60;4.50;;;;;;;-2.26;77.89;100846.97;4244242;28;20246;-66
2024/01/12 11:18:41;;;;;;;9.57;2.37;;;;;;;-2.81;80.36;100843.56;4234860;28;20311;-63
2024/01/12 11:21:09;;;;;;;7.50;1.57;;;;;;;-2.90;82.14;100844.75;4237877;28;21363;-67
2024/01/12 11:23:41;;;;;;;6.70;3.43;;;;;;;-3.21;83.25;100843.97;4260642;28;20297;-66
2024/01/12 11:26:09;;;;;;;8.40;3.57;;;;;;;-3.36;84.29;100847.97;4246525;28;20242;-65